Terminal Aerodrome Forecast
Issued by NWS

Home | Current Version | Previous Version | Text Only | Print | Product List | Glossary On
Versions: 1 2 3 4 5 6 7 8 9 10 11 12 13 14 15 16 17 18 19 20 21 22 23 24 25 26 27 28
016
FTUS46 KPDT 091900 AAA
TAFRDM
TAF AMD
KRDM 091900Z 0919/1018 VRB06KT P6SM VCSH SCT100
      TEMPO 0919/0922 3SM -RASN OVC030
     FM092200 26007KT 5SM -RASN BR SCT015 OVC040
     FM100100 17007KT P6SM VCSH BKN050
     FM100900 17007KT P6SM -SHSN SCT035 OVC050
     FM101500 22007KT P6SM VCSH BKN030 BKN050=

USA.gov is the U.S. government's official web portal to all federal, state and local government web resources and services.